createdAt,value
2022-12-09T00:02:16.766Z,100547.50
2022-12-09T00:04:43.561Z,100546.00
2022-12-09T00:07:10.324Z,100539.22
2022-12-09T00:09:37.141Z,100543.47
2022-12-09T00:12:03.928Z,100546.84
2022-12-09T00:14:30.471Z,100550.97
2022-12-09T00:16:57.145Z,100546.84
2022-12-09T00:19:23.668Z,100560.56
2022-12-09T00:21:50.115Z,100542.25
2022-12-09T00:24:16.571Z,100548.16
2022-12-09T00:26:43.125Z,100544.78
2022-12-09T00:29:10.656Z,100542.25
2022-12-09T00:31:38.720Z,100544.88
2022-12-09T00:34:08.565Z,100562.16
2022-12-09T00:36:35.254Z,100564.63
2022-12-09T00:39:02.154Z,100565.66
2022-12-09T00:41:30.047Z,100556.72
2022-12-09T00:43:57.861Z,100564.63
2022-12-09T00:46:24.537Z,100555.38
2022-12-09T00:48:51.423Z,100556.34
2022-12-09T00:51:20.906Z,100562.00
2022-12-09T00:53:48.327Z,100565.28
2022-12-09T00:56:15.169Z,100576.84
2022-12-09T00:58:41.828Z,100571.50
2022-12-09T01:01:08.648Z,100575.06
2022-12-09T01:03:35.458Z,100569.69
2022-12-09T01:06:07.842Z,100560.47
2022-12-09T01:08:38.345Z,100566.75
2022-12-09T01:11:11.369Z,100584.53
2022-12-09T01:13:38.342Z,100573.53
2022-12-09T01:16:05.314Z,100572.78
2022-12-09T01:18:32.069Z,100582.84
2022-12-09T01:20:59.331Z,100585.31
2022-12-09T01:23:26.151Z,100585.00
2022-12-09T01:25:52.653Z,100585.00
2022-12-09T01:28:19.163Z,100572.25
2022-12-09T01:30:45.591Z,100573.66
2022-12-09T01:33:12.335Z,100572.34
2022-12-09T01:35:42.134Z,100580.53
2022-12-09T01:38:08.690Z,100573.66
2022-12-09T01:40:35.277Z,100592.47
2022-12-09T01:43:01.952Z,100580.06
2022-12-09T01:45:41.436Z,100581.84
2022-12-09T01:48:14.702Z,100573.66
2022-12-09T01:50:46.879Z,100583.75
2022-12-09T01:53:15.425Z,100582.03
2022-12-09T01:55:42.236Z,100579.13
2022-12-09T01:58:10.249Z,100575.66
2022-12-09T02:00:37.090Z,100582.22
2022-12-09T02:03:05.156Z,100583.72
2022-12-09T02:05:32.478Z,100583.56
2022-12-09T02:07:59.351Z,100565.22
2022-12-09T02:10:27.457Z,100567.47
2022-12-09T02:13:13.510Z,100567.94
2022-12-09T02:15:52.760Z,100563.31
2022-12-09T02:18:32.218Z,100565.66
2022-12-09T02:21:05.761Z,100553.63
2022-12-09T02:23:38.285Z,100561.03
2022-12-09T02:26:23.610Z,100562.53
2022-12-09T02:29:01.786Z,100562.44
2022-12-09T02:31:39.899Z,100545.03
2022-12-09T02:34:12.323Z,100554.72
2022-12-09T02:37:06.394Z,100553.22
2022-12-09T02:39:43.824Z,100558.69
2022-12-09T02:42:16.464Z,100549.84
2022-12-09T02:44:48.934Z,100555.09
2022-12-09T02:47:19.678Z,100545.50
2022-12-09T02:49:51.349Z,100530.09
2022-12-09T02:52:19.469Z,100553.00
2022-12-09T02:54:47.643Z,100550.38
2022-12-09T02:57:18.514Z,100557.25
2022-12-09T02:59:44.966Z,100532.44
2022-12-09T03:02:14.481Z,100540.50
2022-12-09T03:04:47.376Z,100542.38
2022-12-09T03:07:44.055Z,100533.72
2022-12-09T03:10:28.369Z,100545.00
2022-12-09T03:13:12.862Z,100547.97
2022-12-09T03:15:53.644Z,100544.56
2022-12-09T03:18:21.542Z,100544.56
2022-12-09T03:20:50.350Z,100549.28
2022-12-09T03:23:19.212Z,100547.31
2022-12-09T03:25:52.420Z,100544.94
2022-12-09T03:28:29.169Z,100543.16
2022-12-09T03:31:01.458Z,100538.75
2022-12-09T03:33:29.961Z,100539.78
2022-12-09T03:36:00.749Z,100532.81
2022-12-09T03:38:31.562Z,100530.19
2022-12-09T03:41:06.707Z,100517.53
2022-12-09T03:43:42.710Z,100525.09
2022-12-09T03:46:09.638Z,100518.66
2022-12-09T03:48:36.424Z,100518.09
2022-12-09T03:51:10.507Z,100524.09
2022-12-09T03:53:49.452Z,100511.34
2022-12-09T03:56:23.056Z,100513.22
2022-12-09T03:58:54.389Z,100503.66
2022-12-09T04:01:24.462Z,100511.25
2022-12-09T04:03:53.167Z,100512.75
2022-12-09T04:06:20.242Z,100514.19
2022-12-09T04:08:47.179Z,100520.66
2022-12-09T04:11:13.885Z,100519.25
2022-12-09T04:13:40.614Z,100505.56
2022-12-09T04:16:07.344Z,100479.03
2022-12-09T04:18:33.864Z,100500.09
2022-12-09T04:21:00.435Z,100495.88
2022-12-09T04:23:27.327Z,100506.19
2022-12-09T04:25:53.805Z,100516.34
2022-12-09T04:28:20.428Z,100513.81
2022-12-09T04:30:47.755Z,100517.47
2022-12-09T04:33:14.620Z,100524.81
2022-12-09T04:35:41.439Z,100530.16
2022-12-09T04:38:08.286Z,100509.88
2022-12-09T04:40:34.886Z,100509.66
2022-12-09T04:43:01.342Z,100524.81
2022-12-09T04:45:28.090Z,100535.50
2022-12-09T04:47:54.985Z,100515.63
2022-12-09T04:50:21.791Z,100535.66
2022-12-09T04:52:48.334Z,100520.69
2022-12-09T04:55:15.901Z,100532.03
2022-12-09T04:57:43.027Z,100529.94
2022-12-09T05:00:11.264Z,100525.91
2022-12-09T05:02:38.172Z,100526.25
2022-12-09T05:05:05.659Z,100534.13
2022-12-09T05:07:32.422Z,100534.28
2022-12-09T05:09:59.664Z,100520.94
2022-12-09T05:12:26.428Z,100524.31
2022-12-09T05:14:53.416Z,100519.75
2022-12-09T05:17:20.359Z,100525.66
2022-12-09T05:19:46.892Z,100535.66
2022-12-09T05:22:17.156Z,100529.47
2022-12-09T05:24:44.609Z,100529.94
2022-12-09T05:27:12.062Z,100536.63
2022-12-09T05:29:39.024Z,100543.97
2022-12-09T05:32:06.396Z,100539.38
2022-12-09T05:34:33.622Z,100523.53
2022-12-09T05:37:00.594Z,100527.50
2022-12-09T05:39:27.327Z,100521.94
2022-12-09T05:41:53.909Z,100517.00
2022-12-09T05:44:20.477Z,100525.25
2022-12-09T05:46:47.137Z,100520.09
2022-12-09T05:49:13.807Z,100524.16
2022-12-09T05:51:40.832Z,100529.69
2022-12-09T05:54:07.622Z,100526.69
2022-12-09T05:56:34.559Z,100518.41
2022-12-09T05:59:01.403Z,100523.38
2022-12-09T06:01:28.566Z,100512.78
2022-12-09T06:03:55.903Z,100525.25
2022-12-09T06:06:26.743Z,100521.69
2022-12-09T06:09:02.108Z,100525.44
2022-12-09T06:11:29.512Z,100522.81
2022-12-09T06:13:56.886Z,100523.44
2022-12-09T06:16:24.229Z,100533.59
2022-12-09T06:18:51.690Z,100520.25
2022-12-09T06:21:20.697Z,100512.53
2022-12-09T06:23:48.510Z,100521.75
2022-12-09T06:26:29.054Z,100526.50
2022-12-09T06:28:56.155Z,100521.50
2022-12-09T06:31:23.344Z,100528.88
2022-12-09T06:33:55.771Z,100523.59
2022-12-09T06:36:23.812Z,100528.69
2022-12-09T06:38:50.749Z,100523.50
2022-12-09T06:41:17.882Z,100519.09
2022-12-09T06:43:44.748Z,100510.34
2022-12-09T06:46:16.932Z,100522.16
2022-12-09T06:48:43.926Z,100511.09
2022-12-09T06:51:11.285Z,100526.28
2022-12-09T06:53:37.932Z,100510.09
2022-12-09T06:56:11.494Z,100526.47
2022-12-09T06:58:40.532Z,100519.31
2022-12-09T07:01:13.520Z,100519.03
2022-12-09T07:03:43.301Z,100517.25
2022-12-09T07:06:30.383Z,100524.06
2022-12-09T07:09:00.352Z,100519.88
2022-12-09T07:11:29.066Z,100525.91
2022-12-09T07:13:56.274Z,100519.22
2022-12-09T07:16:23.142Z,100519.88
2022-12-09T07:18:50.408Z,100529.56
2022-12-09T07:21:19.446Z,100539.78
2022-12-09T07:23:46.665Z,100530.50
2022-12-09T07:26:13.755Z,100530.00
2022-12-09T07:28:44.400Z,100537.91
2022-12-09T07:31:25.456Z,100536.88
2022-12-09T07:33:53.915Z,100531.59
2022-12-09T07:36:22.467Z,100534.31
2022-12-09T07:38:54.570Z,100529.25
2022-12-09T07:41:21.682Z,100541.19
2022-12-09T07:43:48.960Z,100539.41
2022-12-09T07:46:18.120Z,100543.06
2022-12-09T07:48:45.759Z,100554.28
2022-12-09T07:51:13.333Z,100549.19
2022-12-09T07:53:40.659Z,100553.06
2022-12-09T07:56:11.748Z,100550.75
2022-12-09T07:58:38.965Z,100547.84
2022-12-09T08:01:10.825Z,100556.91
2022-12-09T08:03:38.213Z,100557.56
2022-12-09T08:06:05.138Z,100565.88
2022-12-09T08:08:33.011Z,100559.59
2022-12-09T08:11:27.483Z,100555.44
2022-12-09T08:13:57.641Z,100567.59
2022-12-09T08:16:24.917Z,100561.75
2022-12-09T08:18:52.755Z,100566.53
2022-12-09T08:21:23.393Z,100565.13
2022-12-09T08:23:51.448Z,100569.06
2022-12-09T08:26:21.679Z,100554.53
2022-12-09T08:28:49.534Z,100545.19
2022-12-09T08:31:20.184Z,100548.75
2022-12-09T08:33:48.120Z,100553.34
2022-12-09T08:36:21.081Z,100547.34
2022-12-09T08:38:48.215Z,100556.25
2022-12-09T08:41:35.443Z,100561.50
2022-12-09T08:44:17.430Z,100557.22
2022-12-09T08:46:49.336Z,100553.75
2022-12-09T08:49:18.918Z,100557.00
2022-12-09T08:51:48.303Z,100560.31
2022-12-09T08:54:15.223Z,100560.88
2022-12-09T08:56:48.450Z,100563.03
2022-12-09T08:59:16.187Z,100559.13
2022-12-09T09:01:43.250Z,100553.59
2022-12-09T09:04:12.473Z,100545.56
2022-12-09T09:06:41.484Z,100551.78
2022-12-09T09:09:10.023Z,100562.75
2022-12-09T09:11:37.953Z,100556.28
2022-12-09T09:14:06.799Z,100551.97
2022-12-09T09:16:34.649Z,100560.13
2022-12-09T09:19:03.750Z,100561.72
2022-12-09T09:21:30.569Z,100546.41
2022-12-09T09:23:57.382Z,100566.81
2022-12-09T09:26:28.141Z,100566.81
2022-12-09T09:28:56.417Z,100558.16
2022-12-09T09:31:24.399Z,100558.72
2022-12-09T09:33:52.817Z,100560.28
2022-12-09T09:36:23.646Z,100560.19
2022-12-09T09:38:53.287Z,100562.06
2022-12-09T09:41:28.170Z,100560.94
2022-12-09T09:43:56.507Z,100557.78
2022-12-09T09:46:41.543Z,100558.97
2022-12-09T09:49:14.692Z,100561.59
2022-12-09T09:51:42.860Z,100552.56
2022-12-09T09:54:13.968Z,100545.31
2022-12-09T09:56:51.784Z,100559.94
2022-12-09T09:59:28.902Z,100566.00
2022-12-09T10:02:05.176Z,100556.03
2022-12-09T10:05:07.919Z,100558.03
2022-12-09T10:07:52.643Z,100558.16
2022-12-09T10:10:36.865Z,100550.56
2022-12-09T10:13:22.185Z,100550.75
2022-12-09T10:16:12.264Z,100550.84
2022-12-09T10:19:09.281Z,100548.25
2022-12-09T10:21:42.411Z,100549.78
2022-12-09T10:24:29.074Z,100547.88
2022-12-09T10:27:18.611Z,100537.03
2022-12-09T10:29:55.115Z,100545.50
2022-12-09T10:32:24.978Z,100534.88
2022-12-09T10:34:52.506Z,100535.03
2022-12-09T10:37:35.220Z,100553.00
2022-12-09T10:40:08.177Z,100547.50
2022-12-09T10:42:59.382Z,100522.59
2022-12-09T10:45:32.161Z,100532.72
2022-12-09T10:48:32.737Z,100533.31
2022-12-09T10:51:04.991Z,100531.16
2022-12-09T10:53:33.814Z,100534.91
2022-12-09T10:56:02.724Z,100531.63
2022-12-09T10:58:31.397Z,100540.53
2022-12-09T11:01:07.024Z,100534.75
2022-12-09T11:03:47.613Z,100534.16
2022-12-09T11:06:27.249Z,100536.41
2022-12-09T11:09:02.625Z,100522.06
2022-12-09T11:11:45.462Z,100530.38
2022-12-09T11:14:30.566Z,100535.41
2022-12-09T11:17:10.420Z,100524.09
2022-12-09T11:19:39.099Z,100533.31
2022-12-09T11:22:23.831Z,100534.28
2022-12-09T11:24:54.725Z,100522.34
2022-12-09T11:27:27.390Z,100532.66
2022-12-09T11:30:18.113Z,100531.63
2022-12-09T11:32:59.571Z,100534.88
2022-12-09T11:35:31.288Z,100530.59
2022-12-09T11:38:14.071Z,100533.00
2022-12-09T11:40:40.550Z,100532.06
2022-12-09T11:43:07.152Z,100518.59
2022-12-09T11:45:38.407Z,100537.13
2022-12-09T11:48:36.077Z,100521.59
2022-12-09T11:51:05.384Z,100533.44
2022-12-09T11:53:40.647Z,100531.81
2022-12-09T11:56:20.061Z,100526.50
2022-12-09T11:58:59.852Z,100529.03
2022-12-09T12:01:40.222Z,100530.34
2022-12-09T12:04:10.724Z,100528.03
2022-12-09T12:06:49.899Z,100527.41
2022-12-09T12:09:31.316Z,100522.28
2022-12-09T12:12:17.911Z,100525.41
2022-12-09T12:14:45.239Z,100525.75
2022-12-09T12:17:24.686Z,100519.63
2022-12-09T12:19:53.131Z,100505.38
2022-12-09T12:22:55.039Z,100511.22
2022-12-09T12:25:48.012Z,100511.66
2022-12-09T12:28:26.853Z,100512.53
2022-12-09T12:31:28.487Z,100506.97
2022-12-09T12:34:26.987Z,100511.06
2022-12-09T12:37:01.381Z,100511.75
2022-12-09T12:39:45.233Z,100507.84
2022-12-09T12:42:41.582Z,100514.97
2022-12-09T12:45:36.739Z,100512.31
2022-12-09T12:48:18.293Z,100513.28
2022-12-09T12:51:06.794Z,100509.78
2022-12-09T12:53:55.752Z,100513.75
2022-12-09T12:56:37.819Z,100495.94
2022-12-09T12:59:12.318Z,100508.31
2022-12-09T13:01:53.648Z,100505.66
2022-12-09T13:04:49.075Z,100512.91
2022-12-09T13:07:33.598Z,100509.50
2022-12-09T13:10:07.718Z,100502.44
2022-12-09T13:13:01.659Z,100506.16
2022-12-09T13:15:42.009Z,100501.19
2022-12-09T13:18:16.951Z,100503.31
2022-12-09T13:20:47.803Z,100501.16
2022-12-09T13:23:29.757Z,100508.47
2022-12-09T13:26:12.978Z,100515.06
2022-12-09T13:28:54.488Z,100500.09
2022-12-09T13:31:29.999Z,100510.59
2022-12-09T13:34:33.512Z,100511.00
2022-12-09T13:36:59.902Z,100507.03
2022-12-09T13:39:41.811Z,100507.06
2022-12-09T13:42:46.707Z,100500.44
2022-12-09T13:45:24.041Z,100499.75
2022-12-09T13:47:54.404Z,100497.66
2022-12-09T13:50:40.610Z,100496.53
2022-12-09T13:53:19.129Z,100500.59
2022-12-09T13:56:05.043Z,100499.34
2022-12-09T13:58:52.674Z,100498.19
2022-12-09T14:01:43.196Z,100496.66
2022-12-09T14:04:19.223Z,100504.97
2022-12-09T14:06:45.573Z,100505.13
2022-12-09T14:09:26.983Z,100499.06
2022-12-09T14:12:10.891Z,100498.47
2022-12-09T14:15:03.310Z,100497.66
2022-12-09T14:17:29.822Z,100507.25
2022-12-09T14:20:13.738Z,100511.91
2022-12-09T14:22:41.033Z,100501.66
2022-12-09T14:25:25.539Z,100503.97
2022-12-09T14:28:25.965Z,100504.84
2022-12-09T14:31:06.584Z,100500.00
2022-12-09T14:33:35.172Z,100511.81
2022-12-09T14:36:13.482Z,100512.34
2022-12-09T14:42:00.659Z,100502.09
2022-12-09T14:44:42.032Z,100502.94
2022-12-09T14:47:30.620Z,100500.00
2022-12-09T14:50:09.191Z,100486.38
2022-12-09T14:52:36.006Z,100503.34
2022-12-09T14:55:08.791Z,100499.00
2022-12-09T14:57:44.075Z,100508.28
2022-12-09T15:00:29.349Z,100498.41
2022-12-09T15:06:10.960Z,100497.59
2022-12-09T15:08:40.322Z,100504.41
2022-12-09T15:11:18.276Z,100506.91
2022-12-09T15:13:48.063Z,100511.13
2022-12-09T15:16:19.463Z,100521.41
2022-12-09T15:18:46.874Z,100515.13
2022-12-09T15:21:30.807Z,100512.28
2022-12-09T15:23:59.277Z,100515.50
2022-12-09T15:26:33.272Z,100509.03
2022-12-09T15:29:01.080Z,100517.66
2022-12-09T15:31:29.865Z,100513.72
2022-12-09T15:33:58.953Z,100515.09
2022-12-09T15:36:34.184Z,100519.91
2022-12-09T15:39:07.186Z,100506.34
2022-12-09T15:41:57.088Z,100511.06
2022-12-09T15:44:25.736Z,100523.59
2022-12-09T15:46:55.509Z,100510.25
2022-12-09T15:49:28.428Z,100519.25
2022-12-09T15:51:56.338Z,100527.38
2022-12-09T15:54:29.327Z,100524.28
2022-12-09T15:57:02.054Z,100535.81
2022-12-09T15:59:36.895Z,100529.03
2022-12-09T16:02:03.584Z,100519.00
2022-12-09T16:04:38.026Z,100532.19
2022-12-09T16:07:06.429Z,100529.66
2022-12-09T16:09:32.941Z,100526.72
2022-12-09T16:11:59.410Z,100537.63
2022-12-09T16:14:27.806Z,100537.63
2022-12-09T16:16:58.929Z,100529.56
2022-12-09T16:19:31.024Z,100532.97
2022-12-09T16:22:01.450Z,100521.69
2022-12-09T16:24:50.785Z,100534.56
2022-12-09T16:27:20.192Z,100531.94
2022-12-09T16:29:53.349Z,100533.81
2022-12-09T16:32:31.621Z,100523.56
2022-12-09T16:35:00.134Z,100520.25
2022-12-09T16:37:32.802Z,100538.47
2022-12-09T16:39:59.874Z,100525.88
2022-12-09T16:42:36.499Z,100533.66
2022-12-09T16:45:21.606Z,100534.78
2022-12-09T16:47:53.278Z,100537.91
2022-12-09T16:50:19.701Z,100542.81
2022-12-09T16:52:46.251Z,100540.44
2022-12-09T16:55:21.072Z,100544.09
2022-12-09T16:57:47.870Z,100547.91
2022-12-09T17:00:14.862Z,100545.59
2022-12-09T17:02:50.377Z,100539.19
2022-12-09T17:05:16.927Z,100549.00
2022-12-09T17:07:43.384Z,100550.06
2022-12-09T17:10:13.886Z,100560.50
2022-12-09T17:12:40.512Z,100550.41
2022-12-09T17:15:07.841Z,100551.50
2022-12-09T17:17:34.272Z,100549.13
2022-12-09T17:20:01.043Z,100547.69
2022-12-09T17:22:27.625Z,100545.31
2022-12-09T17:24:54.080Z,100558.66
2022-12-09T17:27:20.494Z,100552.97
2022-12-09T17:29:47.008Z,100554.97
2022-12-09T17:32:13.496Z,100558.78
2022-12-09T17:34:39.969Z,100559.72
2022-12-09T17:37:06.713Z,100563.47
2022-12-09T17:39:33.775Z,100562.78
2022-12-09T17:42:00.614Z,100555.06
2022-12-09T17:44:27.294Z,100556.19
2022-12-09T17:46:53.699Z,100563.28
2022-12-09T17:49:21.094Z,100566.47
2022-12-09T17:51:47.837Z,100569.88
2022-12-09T17:54:16.809Z,100558.09
2022-12-09T17:56:43.399Z,100571.72
2022-12-09T17:59:15.688Z,100581.28
2022-12-09T18:01:43.971Z,100579.00
2022-12-09T18:04:11.025Z,100589.34
2022-12-09T18:06:39.986Z,100586.84
2022-12-09T18:09:10.901Z,100589.47
2022-12-09T18:11:37.600Z,100587.94
2022-12-09T18:14:04.479Z,100588.94
2022-12-09T18:16:33.752Z,100594.31
2022-12-09T18:19:09.735Z,100601.31
2022-12-09T18:21:36.552Z,100583.59
2022-12-09T18:24:03.271Z,100598.25
2022-12-09T18:26:32.997Z,100602.44
2022-12-09T18:29:01.860Z,100597.19
2022-12-09T18:31:28.716Z,100601.97
2022-12-09T18:33:55.196Z,100598.34
2022-12-09T18:36:24.499Z,100597.50
2022-12-09T18:38:51.979Z,100604.88
2022-12-09T18:41:23.775Z,100601.25
2022-12-09T18:43:52.797Z,100617.38
2022-12-09T18:46:32.064Z,100617.97
2022-12-09T18:49:04.346Z,100615.22
2022-12-09T18:51:32.471Z,100610.88
2022-12-09T18:54:00.213Z,100614.97
2022-12-09T18:56:27.148Z,100617.59
2022-12-09T18:59:06.537Z,100617.34
2022-12-09T19:01:38.939Z,100620.94
2022-12-09T19:04:07.234Z,100624.22
2022-12-09T19:06:37.212Z,100628.31
2022-12-09T19:09:10.343Z,100623.06
2022-12-09T19:11:38.476Z,100617.88
2022-12-09T19:14:06.480Z,100629.50
2022-12-09T19:16:33.625Z,100616.41
2022-12-09T19:19:07.173Z,100628.03
2022-12-09T19:21:35.776Z,100625.09
2022-12-09T19:24:02.191Z,100630.78
2022-12-09T19:26:31.570Z,100630.44
2022-12-09T19:29:03.933Z,100636.81
2022-12-09T19:31:40.791Z,100639.03
2022-12-09T19:34:26.980Z,100643.78
2022-12-09T19:36:56.028Z,100638.03
2022-12-09T19:39:24.834Z,100637.69
2022-12-09T19:41:51.495Z,100645.91
2022-12-09T19:44:37.192Z,100653.44
2022-12-09T19:47:06.771Z,100662.44
2022-12-09T19:49:33.366Z,100656.75
2022-12-09T19:52:00.132Z,100654.81
2022-12-09T19:54:29.012Z,100637.41
2022-12-09T19:56:56.645Z,100664.38
2022-12-09T19:59:23.089Z,100666.81
2022-12-09T20:01:49.668Z,100669.75
2022-12-09T20:04:47.517Z,100664.97
2022-12-09T20:07:08.147Z,100677.63
2022-12-09T20:09:36.673Z,100667.56
2022-12-09T20:12:03.466Z,100672.56
2022-12-09T20:14:29.879Z,100670.72
2022-12-09T20:16:56.301Z,100663.31
2022-12-09T20:19:23.763Z,100676.94
2022-12-09T20:21:53.251Z,100685.16
2022-12-09T20:24:19.649Z,100668.88
2022-12-09T20:26:46.094Z,100680.28
2022-12-09T20:29:12.761Z,100681.22
2022-12-09T20:31:40.037Z,100680.00
2022-12-09T20:34:11.586Z,100682.44
2022-12-09T20:36:40.949Z,100664.38
2022-12-09T20:39:12.646Z,100685.06
2022-12-09T20:41:39.760Z,100676.22
2022-12-09T20:44:06.305Z,100689.22
2022-12-09T20:46:33.607Z,100676.34
2022-12-09T20:49:00.718Z,100683.00
2022-12-09T20:51:32.981Z,100690.81
2022-12-09T20:54:00.562Z,100689.97
2022-12-09T20:56:28.907Z,100695.16
2022-12-09T20:58:56.756Z,100690.91
2022-12-09T21:01:29.571Z,100696.84
2022-12-09T21:03:57.560Z,100696.75
2022-12-09T21:06:27.102Z,100698.53
2022-12-09T21:08:53.834Z,100698.44
2022-12-09T21:11:22.587Z,100702.09
2022-12-09T21:13:51.583Z,100693.28
2022-12-09T21:16:25.400Z,100704.56
2022-12-09T21:18:57.956Z,100708.81
2022-12-09T21:21:26.561Z,100701.09
2022-12-09T21:23:54.530Z,100702.69
2022-12-09T21:26:23.378Z,100704.38
2022-12-09T21:28:50.869Z,100712.16
2022-12-09T21:31:20.580Z,100698.91
2022-12-09T21:33:48.909Z,100699.00
2022-12-09T21:36:21.023Z,100707.75
2022-12-09T21:38:47.878Z,100705.22
2022-12-09T21:41:20.909Z,100700.59
2022-12-09T21:43:47.431Z,100690.66
2022-12-09T21:46:19.853Z,100686.22
2022-12-09T21:48:52.092Z,100704.09
2022-12-09T21:51:19.304Z,100705.78
2022-12-09T21:53:46.096Z,100698.38
2022-12-09T21:56:18.201Z,100695.53
2022-12-09T21:58:46.106Z,100703.34
2022-12-09T22:01:23.831Z,100711.63
2022-12-09T22:03:50.509Z,100711.63
2022-12-09T22:06:17.744Z,100702.31
2022-12-09T22:08:44.816Z,100710.88
2022-12-09T22:11:14.174Z,100697.13
2022-12-09T22:13:40.930Z,100717.44
2022-12-09T22:16:12.687Z,100707.22
2022-12-09T22:18:40.028Z,100714.81
2022-12-09T22:21:24.328Z,100714.00
2022-12-09T22:23:53.503Z,100696.94
2022-12-09T22:26:21.044Z,100708.72
2022-12-09T22:28:47.915Z,100712.00
2022-12-09T22:31:17.648Z,100719.72
2022-12-09T22:33:44.703Z,100711.25
2022-12-09T22:36:12.564Z,100717.00
2022-12-09T22:38:41.763Z,100723.19
2022-12-09T22:41:17.172Z,100723.28
2022-12-09T22:43:43.707Z,100717.19
2022-12-09T22:46:15.882Z,100724.13
2022-12-09T22:48:42.794Z,100717.34
2022-12-09T22:51:15.819Z,100731.19
2022-12-09T22:53:43.049Z,100725.94
2022-12-09T22:56:11.023Z,100725.00
2022-12-09T22:58:37.904Z,100728.56
2022-12-09T23:01:16.394Z,100718.88
2022-12-09T23:03:43.119Z,100727.53
2022-12-09T23:06:10.728Z,100717.19
2022-12-09T23:08:40.024Z,100725.84
2022-12-09T23:11:11.388Z,100715.22
2022-12-09T23:13:41.185Z,100723.03
2022-12-09T23:16:09.188Z,100722.94
2022-12-09T23:18:36.144Z,100721.16
2022-12-09T23:21:11.935Z,100707.41
2022-12-09T23:23:38.802Z,100709.00
2022-12-09T23:26:07.998Z,100714.72
2022-12-09T23:28:39.226Z,100720.13
2022-12-09T23:31:08.870Z,100715.78
2022-12-09T23:33:36.700Z,100712.09
2022-12-09T23:36:08.206Z,100714.63
2022-12-09T23:38:35.182Z,100713.06
2022-12-09T23:41:02.314Z,100721.81
2022-12-09T23:43:36.894Z,100715.78
2022-12-09T23:46:11.381Z,100718.34
2022-12-09T23:48:41.610Z,100721.81
2022-12-09T23:51:13.952Z,100729.72
2022-12-09T23:53:41.846Z,100728.03
2022-12-09T23:56:12.493Z,100707.41
2022-12-09T23:58:39.624Z,100722.84
